Terminal Aerodrome Forecast
Issued by NWS

Home | Current Version | Previous Version | Text Only | Print | Product List | Glossary Off
Versions: 1 2 3 4 5 6 7 8 9 10 11 12 13 14 15 16

772
FTUS43 KTOP 022321
TAFFOE
TAF
KFOE 022321Z 0300/0324 23013G23KT P6SM OVC035
     FM030300 28017G28KT P6SM OVC015
      TEMPO 0303/0307 6SM -SN BKN008
     FM030900 32017G31KT P6SM BKN015
     FM031900 32016KT P6SM SCT020=

USA.gov is the U.S. government's official web portal to all federal, state and local government web resources and services.